LPR6 EPKX-EPKX
Flight info
| Callsign | LPR6 |
|---|---|
| Flight time | 0h 17m |
| Altitude | 1500 |
| Route | DCT |
| Aircraft | EC35/L-VGD/A |
Departure
| Time | 2026-04-14 18:19 |
|---|---|
| Airport | Kokotowie LPR HEMS Heliport (EPKX) |
Arrival
| Time | 2026-04-14 18:36 |
|---|---|
| Airport | Kokotowie LPR HEMS Heliport (EPKX) |
| Time | Latitude | Longitude | Altitude | Speed | Heading |
|---|---|---|---|---|---|
| 2026-04-14 18:15 | 50.02230 | 20.07000 | 652 ft | 0 kts | 156° |
| 2026-04-14 18:16 | 50.02223 | 20.07002 | 658 ft | 1 kts | 14° |
| 2026-04-14 18:16 | 50.02267 | 20.06990 | 660 ft | 8 kts | 57° |
| 2026-04-14 18:16 | 50.02272 | 20.07010 | 684 ft | 9 kts | 65° |
| 2026-04-14 18:17 | 50.02242 | 20.06940 | 842 ft | 11 kts | 64° |
| 2026-04-14 18:17 | 50.02365 | 20.07100 | 972 ft | 49 kts | 348° |
| 2026-04-14 18:17 | 50.02640 | 20.06549 | 1007 ft | 90 kts | 291° |
| 2026-04-14 18:17 | 50.02930 | 20.05558 | 1006 ft | 106 kts | 288° |
| 2026-04-14 18:18 | 50.03155 | 20.04421 | 1043 ft | 115 kts | 284° |
| 2026-04-14 18:18 | 50.03310 | 20.03226 | 1099 ft | 111 kts | 284° |
| 2026-04-14 18:18 | 50.03428 | 20.02029 | 1147 ft | 113 kts | 282° |
| 2026-04-14 18:18 | 50.03579 | 20.00842 | 1200 ft | 111 kts | 286° |
| 2026-04-14 18:19 | 50.03789 | 19.99678 | 1252 ft | 112 kts | 288° |
| 2026-04-14 18:19 | 50.04007 | 19.98522 | 1301 ft | 112 kts | 288° |
| 2026-04-14 18:19 | 50.04223 | 19.97357 | 1308 ft | 112 kts | 288° |
| 2026-04-14 18:19 | 50.04437 | 19.96202 | 1304 ft | 111 kts | 288° |
| 2026-04-14 18:20 | 50.04653 | 19.95044 | 1307 ft | 111 kts | 288° |
| 2026-04-14 18:20 | 50.04869 | 19.93890 | 1301 ft | 112 kts | 288° |
| 2026-04-14 18:20 | 50.05087 | 19.92726 | 1304 ft | 112 kts | 288° |
| 2026-04-14 18:20 | 50.05318 | 19.91513 | 1301 ft | 118 kts | 288° |
| 2026-04-14 18:21 | 50.05548 | 19.90298 | 1308 ft | 116 kts | 288° |
| 2026-04-14 18:21 | 50.05776 | 19.89088 | 1302 ft | 117 kts | 288° |
| 2026-04-14 18:21 | 50.05970 | 19.87867 | 1306 ft | 116 kts | 278° |
| 2026-04-14 18:21 | 50.05970 | 19.86585 | 1400 ft | 121 kts | 266° |
| 2026-04-14 18:22 | 50.05868 | 19.85290 | 1477 ft | 121 kts | 263° |
| 2026-04-14 18:22 | 50.05750 | 19.84014 | 1518 ft | 121 kts | 262° |
| 2026-04-14 18:22 | 50.05624 | 19.82728 | 1510 ft | 120 kts | 262° |
| 2026-04-14 18:22 | 50.05495 | 19.81443 | 1504 ft | 120 kts | 262° |
| 2026-04-14 18:23 | 50.05368 | 19.80157 | 1505 ft | 121 kts | 262° |
| 2026-04-14 18:23 | 50.05239 | 19.78861 | 1505 ft | 121 kts | 262° |
| 2026-04-14 18:23 | 50.05110 | 19.77564 | 1505 ft | 121 kts | 262° |
| 2026-04-14 18:23 | 50.05034 | 19.76269 | 1502 ft | 121 kts | 276° |
| 2026-04-14 18:24 | 50.05266 | 19.75030 | 1505 ft | 119 kts | 300° |
| 2026-04-14 18:24 | 50.05853 | 19.74166 | 1506 ft | 117 kts | 333° |
| 2026-04-14 18:24 | 50.06602 | 19.73698 | 1505 ft | 116 kts | 344° |
| 2026-04-14 18:24 | 50.07378 | 19.73332 | 1500 ft | 117 kts | 345° |
| 2026-04-14 18:25 | 50.08161 | 19.72979 | 1506 ft | 117 kts | 345° |
| 2026-04-14 18:25 | 50.08944 | 19.72620 | 1496 ft | 116 kts | 345° |
| 2026-04-14 18:25 | 50.09618 | 19.72094 | 1444 ft | 99 kts | 307° |
| 2026-04-14 18:25 | 50.09546 | 19.71308 | 1430 ft | 70 kts | 210° |
| 2026-04-14 18:26 | 50.09246 | 19.71477 | 1379 ft | 47 kts | 113° |
| 2026-04-14 18:26 | 50.09207 | 19.71970 | 1345 ft | 42 kts | 68° |
| 2026-04-14 18:26 | 50.09307 | 19.72111 | 1255 ft | 20 kts | 18° |
| 2026-04-14 18:26 | 50.09441 | 19.72169 | 1137 ft | 15 kts | 1° |
| 2026-04-14 18:27 | 50.09538 | 19.72159 | 997 ft | 10 kts | 5° |
| 2026-04-14 18:27 | 50.09570 | 19.72166 | 935 ft | 3 kts | 6° |
| 2026-04-14 18:27 | 50.09577 | 19.72166 | 922 ft | 0 kts | 7° |
| 2026-04-14 18:27 | 50.09577 | 19.72167 | 921 ft | 0 kts | 7° |
| 2026-04-14 18:30 | 50.09552 | 19.72172 | 963 ft | 5 kts | 10° |
| 2026-04-14 18:30 | 50.09474 | 19.72160 | 1117 ft | 16 kts | 10° |
| 2026-04-14 18:31 | 50.09595 | 19.72341 | 1215 ft | 57 kts | 71° |
| 2026-04-14 18:31 | 50.09573 | 19.73096 | 1372 ft | 75 kts | 97° |
| 2026-04-14 18:31 | 50.09481 | 19.73979 | 1467 ft | 92 kts | 98° |
| 2026-04-14 18:31 | 50.09384 | 19.75041 | 1529 ft | 102 kts | 92° |
| 2026-04-14 18:32 | 50.09415 | 19.76165 | 1500 ft | 111 kts | 84° |
| 2026-04-14 18:32 | 50.09502 | 19.77419 | 1507 ft | 120 kts | 81° |
| 2026-04-14 18:32 | 50.09633 | 19.78691 | 1521 ft | 119 kts | 79° |
| 2026-04-14 18:32 | 50.09777 | 19.79984 | 1516 ft | 119 kts | 79° |
| 2026-04-14 18:33 | 50.09920 | 19.81249 | 1511 ft | 119 kts | 78° |
| 2026-04-14 18:33 | 50.10056 | 19.82513 | 1511 ft | 118 kts | 80° |
| 2026-04-14 18:33 | 50.10190 | 19.83784 | 1515 ft | 119 kts | 79° |
| 2026-04-14 18:34 | 50.09593 | 19.87472 | 1514 ft | 120 kts | 114° |
| 2026-04-14 18:34 | 50.09237 | 19.88640 | 1515 ft | 119 kts | 111° |
| 2026-04-14 18:34 | 50.08921 | 19.89851 | 1519 ft | 120 kts | 107° |
| 2026-04-14 18:35 | 50.08658 | 19.91060 | 1514 ft | 119 kts | 105° |
| 2026-04-14 18:35 | 50.08408 | 19.92244 | 1366 ft | 105 kts | 122° |
| 2026-04-14 18:35 | 50.08008 | 19.92947 | 1224 ft | 72 kts | 130° |
| 2026-04-14 18:35 | 50.07801 | 19.93536 | 1163 ft | 56 kts | 90° |
| 2026-04-14 18:36 | 50.07902 | 19.93866 | 1043 ft | 30 kts | 16° |
| 2026-04-14 18:36 | 50.08087 | 19.93878 | 934 ft | 21 kts | 8° |
| 2026-04-14 18:36 | 50.08188 | 19.93896 | 811 ft | 6 kts | 8° |
| 2026-04-14 18:36 | 50.08221 | 19.93904 | 756 ft | 3 kts | 6° |
| 2026-04-14 18:37 | 50.08223 | 19.93905 | 746 ft | 1 kts | 5° |
| 2026-04-14 18:37 | 50.08224 | 19.93905 | 737 ft | 1 kts | 6° |
| 2026-04-14 18:37 | 50.08224 | 19.93904 | 730 ft | 1 kts | 6° |
| 2026-04-14 18:43 | 50.08224 | 19.93905 | 731 ft | 1 kts | 4° |
| 2026-04-14 18:43 | 50.08197 | 19.93898 | 811 ft | 3 kts | 7° |
| 2026-04-14 18:44 | 50.08170 | 19.93898 | 886 ft | 9 kts | 6° |
| 2026-04-14 18:44 | 50.08135 | 19.93910 | 993 ft | 22 kts | 8° |
| 2026-04-14 18:44 | 50.08243 | 19.94257 | 1122 ft | 61 kts | 106° |
| 2026-04-14 18:44 | 50.07895 | 19.94810 | 1292 ft | 81 kts | 127° |
| 2026-04-14 18:45 | 50.07469 | 19.95547 | 1312 ft | 100 kts | 126° |
| 2026-04-14 18:45 | 50.07011 | 19.96410 | 1328 ft | 104 kts | 127° |
| 2026-04-14 18:45 | 50.06565 | 19.97299 | 1345 ft | 107 kts | 125° |
| 2026-04-14 18:45 | 50.06119 | 19.98231 | 1366 ft | 106 kts | 123° |
| 2026-04-14 18:46 | 50.05695 | 19.99176 | 1409 ft | 108 kts | 123° |
| 2026-04-14 18:46 | 50.05251 | 20.00148 | 1362 ft | 113 kts | 124° |
| 2026-04-14 18:46 | 50.04784 | 20.01153 | 1281 ft | 116 kts | 124° |
| 2026-04-14 18:46 | 50.04296 | 20.02181 | 1195 ft | 119 kts | 125° |
| 2026-04-14 18:47 | 50.03808 | 20.03190 | 1188 ft | 115 kts | 126° |
| 2026-04-14 18:47 | 50.03302 | 20.04186 | 1216 ft | 120 kts | 127° |
| 2026-04-14 18:47 | 50.02757 | 20.05160 | 1152 ft | 109 kts | 141° |
| 2026-04-14 18:47 | 50.02309 | 20.05679 | 1103 ft | 54 kts | 143° |
| 2026-04-14 18:48 | 50.02114 | 20.05963 | 1030 ft | 23 kts | 113° |
| 2026-04-14 18:48 | 50.02038 | 20.06239 | 962 ft | 32 kts | 75° |
| 2026-04-14 18:48 | 50.02108 | 20.06502 | 899 ft | 21 kts | 67° |
| 2026-04-14 18:48 | 50.02168 | 20.06699 | 842 ft | 20 kts | 68° |
| 2026-04-14 18:49 | 50.02234 | 20.06891 | 762 ft | 19 kts | 68° |
| 2026-04-14 18:49 | 50.02269 | 20.07000 | 683 ft | 5 kts | 65° |
| 2026-04-14 18:49 | 50.02279 | 20.07028 | 661 ft | 1 kts | 90° |
| 2026-04-14 18:49 | 50.02277 | 20.07027 | 655 ft | 4 kts | 248° |
| 2026-04-14 18:50 | 50.02263 | 20.06987 | 656 ft | 5 kts | 196° |
| 2026-04-14 18:50 | 50.02245 | 20.06988 | 652 ft | 2 kts | 157° |
| 2026-04-14 18:50 | 50.02234 | 20.06997 | 652 ft | 2 kts | 157° |
| 2026-04-14 18:50 | 50.02230 | 20.07000 | 648 ft | 0 kts | 157° |